Virtual LH

Virtual LH. There's no better way to fly
Since 2013.



AIRPORT MAP

METAR AND TAF INFORMATION

METAR FOR GOBD
ADDS - METARS form results

(2145 UTC 19 March 2019)
Data provider http://aviationweather.gov/metar/data/
 
METAR text: GOBD 192100Z 35015KT CAVOK 23/15 Q1009 NOSIG
Conditions at: GOBD (DAKAR/DIAGNE , SN) observed 2100 UTC 19 March 2019
Temperature: 23.0°C (73°F)
Dewpoint: 15.0°C (59°F) [RH = 61%]
Pressure (altimeter): 29.79 inches Hg (1009.0 mb)
Winds: from the N (350 degrees) at 17 MPH (15 knots; 7.7 m/s)
Visibility: 6 or more miles (10+ km)
Ceiling: ceiling and visibility are OK
Clouds: unknown
Weather: no significant weather observed at this time

Forecast for: GOBD (DAKAR/DIAGNE , SN)
Text: TAF GOBD 191730Z 1918/2024 35012KT CAVOK
Forecast period: 1800 UTC 19 March 2019 to 0000 UTC 21 March 2019
Forecast type: FROM: standard forecast or significant change
Winds: from the N (350 degrees) at 14 MPH (12 knots; 6.2 m/s)
Visibility: 6 or more miles 10+ km)
Ceiling: unknown
Clouds: missing
Weather: NSW  (no significant weather)

RUNWAY INFORMATION


AIRPORT FREQUENCIES


AIRPORT NEAR NAVIGATION AIDS